Encanto, Brazil
Current Conditions -  °F | °C
As of 6:00 PM on Tuesday 21 Oct 2014 (Local Time) from SBJU Reporting Station
Few Clouds Few Clouds  
Wind Chill: 93°   Ceiling: Unl
Heat Index: 94°   Visibility: 6mi
Dew Point: 63°   Wind: 3mph
Humidity: 36%   Direction: 40°NE
Pressure: 29.91"   Gusts: NA
Location:  6.11°S, 38.31°W
Report Text: SBJU 212100Z 04003KT 9999 FEW023 34/17 Q1013
Loading
Personal Weather Stations






























Interactive Weather Map
Tropical Storm Tracking
New forecast layout! Learn more

10-Day Weather Forecast

Advertisements
Track Severe Weather on mobile